Create Custom Reports and Graphics: Custom Report

North Region Latest Observations

Map

10 Minute Data

Winnemucca/Elko Latest Observations

Map

10 Minute Data

South Region Latest Observations

Map

10 Minute Data

Latest Observation

65 Stations

10 Minute Data
as of 5/3/26 12:30 AM PDT
Station Date Time Temp (°F) RH (%) Dew Pt (°F) Wind Spd (mph) Wind Dir (°) Wind Gust (mph) Wind Gst Dir (°) Latest Rain (In) Soil Moist (%) Soil Temp (°F) Daily Rain (In) Daily Min Temp (°F) Daily Max Temp (°F) Daily Max Wind (mph)
Hobart Mills 5/3/26 0030 41.3   1.0 99   21 41.0   5.2 1.0   1.1 WSW | 249 1.7   1.5 WSW | 254 0.00 - 32.0   0.0 0.07 35.0   5.7 63.0   3.9 14.0   2.4
Prosser Dam 5/3/26 0030 42.3   1.7 97   12 41.5   1.9 0.5   1.3 SW | 218 1.6   1.7 SSW | 193 0.00 21.0   0.3 49.4   1.2 0.10 33.6   6.0 64.5   3.0 17.3   2.7
West Incline Village 5/3/26 0030 45.6   3.6 70   39 36.4   16.9 2.0   1.1 NE | 44 7.3   3.2 ENE | 75 0.00 30.7   0.2 44.6   0.5 0.11 41.9   0.7 57.2   4.0 12.8   2.1
Incline Village (Fairview Blvd) 5/3/26 0030 49.3   2.2 60   34 35.8   18.3 0.5   0.4 N | 353 3.6   2.1 NNW | 346 0.00 24.2   0.1 52.2   0.7 0.11 44.3   0.4 58.6   5.6 9.9   2.5
Incline Village (Diamond Peak) 5/3/26 0030 47.0   3.1 62   35 34.5   17.2 3.2   3.0 NNE | 32 10.3   7.7 ENE | 64 0.00 8.5   0.1 46.0   0.2 0.00 45.2   1.4 56.0   2.6 13.8   4.6
Incline Village (Mill Creek) 5/3/26 0030 51.2   2.8 56   17 35.8   11.6 6.6   6.6 N | 1 15.8   15.8 NNE | 13 0.00 9.8   0.1 45.8   0.8 0.05 44.0   1.5 60.6   3.9 15.8   0.6
Incline Village (Lakeshore Blvd) 5/3/26 0030 52.0   7.5 59   4 38.0   8.9 2.5   2.1 NE | 41 7.8   6.0 NNE | 17 0.00 33.9   3.1 52.6   0.6 0.08 39.6   3.7 61.2   1.5 15.4   3.8
Glenbrook 5/3/26 0030 48.6   3.3 82   25 43.4   12.4 0.6   0.6 W | 275 3.8   3.8 W | 262 0.00 44.3   0.0 45.0   0.2 0.00 40.3   3.0 61.1   3.3 21.2   3.0
Zephyr Cove 5/3/26 0030 48.6   0.5 69   12 39.0   5.1 0.2   0.2 NNW | 332 2.2   2.2 NW | 319 0.00 - 34.3   0.0 0.00 43.1   13.7 62.8   0.7 4.6   2.7
Kingsbury Grade 5/3/26 0030 49.5   4.4 60   13 36.0   10.2 5.1   3.2 E | 92 10.2   6.6 E | 92 0.00 5.8   0.5 56.0   0.9 0.00 41.8   4.5 61.6   0.0 16.8   1.6
South Daggett Pass (Ridge) 5/3/26 0030 45.9   2.8 67   16 35.6   4.4 4.3   4.3 SE | 132 8.6   8.6 SE | 125 0.00 6.5   0.0 48.8   0.7 0.00 44.9   1.8 58.0   0.8 18.9   2.2
Palomino Valley 5/3/26 0030 54.0   1.0 68   46 43.8   28.2 0.2   1.4 W | 260 3.2   2.7 W | 267 0.00 6.8   0.0 64.3   1.4 0.00 41.8   7.8 73.7   0.5 28.7   2.9
East Cold Springs 5/3/26 0030 50.3   5.3 72   36 41.6   12.7 4.5   1.2 WNW | 301 9.4   2.0 W | 278 0.00 1.5   0.0 56.0   1.5 0.07 48.1   2.5 66.0   3.0 18.6   7.4
Peavine 5/3/26 0030 48.2   4.5 74   46 40.2   19.9 5.7   0.1 SSW | 196 9.2   0.2 SSW | 193 0.00 - 53.4   0.0 0.02 45.3   1.1 63.5   2.6 22.5   4.6
West Verdi Peak 5/3/26 0030 47.5   7.2 71   21 38.7   2.0 1.5   0.3 NW | 311 4.0   4.0 NW | 305 0.00 16.6   0.5 51.3   1.6 0.03 44.5   4.2 61.4   4.6 16.0   1.1
West Verdi 5/3/26 0030 48.9   5.5 83   30 43.9   6.5 3.2   0.3 SSE | 160 6.1   0.2 SE | 134 0.00 7.8   0.2 61.3   2.1 0.00 46.7   7.5 67.2   3.1 19.5   2.5
South Verdi 5/3/26 0030 52.9   4.9 61   18 39.7   4.2 3.8   8.2 WSW | 248 8.1   6.0 WSW | 248 0.00 16.6   0.6 58.9   3.6 0.04 45.8   2.8 66.0   1.1 24.5   4.8
Northwest Reno 5/3/26 0030 52.3   7.4 71   44 43.0   17.9 5.1   1.9 NE | 48 13.2   6.8 NNW | 338 0.00 24.3   0.3 63.5   1.9 0.04 51.6   5.2 68.3   2.6 28.4   3.1
North Lawton 5/3/26 0030 51.4   6.8 70   26 42.0   5.6 4.3   2.4 NW | 321 8.6   0.4 NW | 308 0.00 - 39.1   0.0 0.03 49.5   8.1 67.5   2.8 18.9   2.2
West Reno (Mogul) 5/3/26 0030 51.4   4.2 71   25 42.5   7.2 5.2   0.4 WNW | 292 8.7   1.4 NW | 309 0.00 38.9   0.1 61.3   0.2 0.02 48.8   5.8 68.2   1.0 28.1   4.8
Caughlin (Hunter Lake Trail) 9/16/25 0800 59.7   3.5 41   11 35.9   2.7 0.0   0.0 N | 0 0.0   0.0 ENE | 66 0.00 15.7   0.0 69.8   0.5 0.00 55.7   3.2 67.7   9.1 9.4   0.9
ArrowCreek 5/3/26 0030 54.0   4.2 63   41 41.9   21.4 5.0   5.0 ESE | 113 11.4   11.4 ESE | 110 0.00 - 32.0   0.0 0.01 48.9   4.6 68.2   2.2 28.9   12.6
Tracy 5/3/26 0030 56.2   4.3 66   47 45.0   27.0 2.7   0.8 W | 265 5.7   1.4 WSW | 254 0.00 8.1   0.1 63.9   0.6 0.00 48.0   4.7 74.1   0.2 23.2   3.1
Virginia Highlands 5/3/26 0030 50.2   6.1 64   44 38.6   22.4 0.0   2.2 N | 0 0.0   4.2 S | 185 0.00 7.2   0.0 57.2   0.6 0.03 48.0   1.2 65.2   0.6 28.2   10.7
Virginia City 5/3/26 0030 52.4   3.4 54   33 36.1   19.9 1.4   0.1 SSW | 206 4.2   0.7 SW | 224 0.00 8.5   0.2 55.7   1.2 0.00 51.0   3.5 64.1   1.4 37.1   21.4
Six Mile Canyon 9/9/25 0630 60.2   9.6 37   6 33.7   4.8 4.1   2.5 W | 277 6.1   2.9 WNW | 286 0.00 12.5   0.0 75.5   0.7 0.00 57.9   7.6 64.4   1.9 7.0   3.9
Mt Rose Highway 4/30/26 0510 40.8   4.7 47   13 22.3   1.3 2.3   0.2 WSW | 243 4.8   2.1 WSW | 246 0.00 24.1   0.3 43.0   0.8 0.00 40.5   4.7 43.0   5.3 7.7   0.4
Pleasant Valley 5/3/26 0030 53.3   0.2 67   32 42.7   16.2 2.1   0.7 NNW | 347 6.1   3.2 NNW | 346 0.00 2.8   0.0 63.8   1.2 0.05 46.0   4.7 68.9   3.0 25.5   10.9
New Washoe City 5/3/26 0030 51.1   1.5 75   49 43.4   25.2 1.9   2.5 ENE | 69 5.5   1.1 SE | 132 0.00 4.5   0.1 59.2   0.3 0.01 46.1   5.3 67.5   2.6 28.2   9.2
Franktown Creek 5/3/26 0030 49.1   2.3 88   51 45.8   19.6 1.2   0.7 WNW | 298 4.0   2.2 NW | 315 0.00 11.2   0.1 56.7   0.2 0.02 45.2   6.6 67.4   2.5 23.0   12.8
Musgrove Creek 5/3/26 0030 49.3   5.1 76   53 42.2   24.2 2.3   2.2 SW | 219 4.1   2.5 WSW | 247 0.01 39.4   0.3 52.7   0.6 0.05 47.8   1.1 64.5   2.3 12.7   1.6
East Carson 11/23/24 0110 28.6   28.4 - - 4.7   11.0 SW | 220 14.7   10.1 SW | 219 0.02 - 50.9   0.1 0.02 -25.9   79.1 42.9   14.6 16.0   10.7
Kings Canyon 5/3/26 0030 50.1   2.8 78   49 43.7   22.2 3.5   1.0 S | 184 7.6   0.9 SSE | 168 0.00 15.4   0.1 59.3   2.1 0.02 45.8   5.5 67.9   1.0 22.5   7.6
Carson City (Voltaire Canyon) 5/3/26 0030 53.6   7.6 66   47 42.7   23.3 3.9   2.2 NNW | 342 8.6   4.7 NW | 311 0.00 2.8   0.0 62.6   0.7 0.00 50.9   3.5 70.0   0.2 28.1   12.3
Jacks Valley 5/3/26 0030 50.7   5.1 76   51 43.5   22.6 4.0   1.4 SSW | 201 6.2   1.9 S | 169 0.00 9.8   0.3 64.9   3.7 0.01 47.0   3.4 69.0   0.5 25.5   6.3
Genoa 5/3/26 0030 52.5   4.4 74   43 44.4   17.6 0.0   0.0 N | 0 0.0   0.0 SSW | 207 0.00 5.7   0.2 61.2   0.9 0.01 47.6   5.1 71.9   0.7 10.7   1.0
South Genoa (Walleys Hot Springs) 5/3/26 0030 54.3   0.3 70   24 44.6   10.9 1.5   1.5 ESE | 105 5.6   5.6 WNW | 287 0.00 14.4   0.3 64.7   0.3 0.00 42.9   5.9 72.1   0.2 21.6   5.7
SW Gardnerville (HWY 88) 5/3/26 0030 53.2   0.4 70   14 43.7   6.1 4.7   1.6 W | 272 8.8   4.0 WSW | 258 0.00 3.3   0.1 58.9   0.5 0.01 42.1   8.3 70.6   0.0 25.3   12.4
Sheridan 5/3/26 0030 54.0   1.3 64   22 42.2   12.0 4.1   2.6 SW | 225 6.2   3.4 SW | 233 0.00 2.4   0.1 61.1   1.8 0.00 45.8   6.2 72.1   1.2 23.6   9.7
Ruhenstroth 5/3/26 0030 52.9   1.2 65   28 41.5   13.3 1.8   1.0 SE | 134 3.6   1.5 SE | 138 0.00 12.9   0.3 60.4   2.5 0.00 45.0   5.5 70.7   1.2 22.4   5.6
Double Spring 5/3/26 0030 45.5   5.5 85   54 41.2   19.8 4.1   1.7 NNW | 345 7.0   2.1 NNE | 22 0.00 28.7   0.4 58.8   2.6 0.12 39.6   9.0 65.6   1.7 21.0   2.7
North Topaz Lake 5/3/26 0030 55.0   3.4 55   33 39.1   19.5 6.7   0.0 WNW | 290 12.8   4.1 W | 278 0.00 9.0   0.2 59.6   3.1 0.05 51.6   3.7 67.9   1.0 22.1   4.7
Wild Oat Mountain 5/3/26 0030 50.6   4.9 64   38 38.9   17.7 6.3   3.3 NNW | 329 9.4   4.3 NNW | 332 0.00 16.7   0.1 60.7   1.3 0.00 49.7   3.5 65.6   2.6 24.2   5.6
Smith Valley 5/3/26 0030 58.4   0.8 45   26 37.4   20.3 2.6   4.1 NW | 317 4.6   6.0 NW | 310 0.00 6.0   0.0 63.3   1.7 0.00 45.6   2.8 72.5   0.4 20.2   5.8
Pine Grove Mountain 5/3/26 0030 46.0   2.6 52   32 29.4   20.1 5.4   7.0 NE | 54 10.3   8.9 NE | 41 0.00 14.5   0.0 52.5   1.7 0.02 44.7   3.2 58.7   1.6 24.5   4.3
Paradise Hill 5/3/26 0030 59.9   13.0 30   3 28.5   9.5 5.3   0.0 ENE | 65 11.3   3.8 N | 0 0.00 8.1   0.1 59.4   0.1 0.00 38.9   0.3 74.6   2.8 19.9   0.6
Winnemucca 5/3/26 0030 56.6   5.1 42   15 33.5   15.1 6.5   1.0 SSE | 153 8.4   1.0 S | 178 0.00 6.0   0.0 58.9   0.6 0.00 41.1   2.6 75.7   4.1 20.0   1.6
NE Elko 5/3/26 0030 49.0   8.4 27   6 16.0   2.5 0.2   0.2 ESE | 106 1.4   1.4 ENE | 63 0.00 12.5   0.0 59.8   0.1 0.00 28.6   5.3 71.9   3.8 16.8   0.1
North Elko 5/3/26 0030 59.0   9.2 17   8 14.3   1.0 3.7   1.6 NNW | 338 5.1   2.5 NNW | 342 0.00 28.5   0.1 56.7   0.8 0.00 42.5   0.8 69.7   4.6 18.4   0.4
South Elko 5/3/26 0030 68.5   2.2 35   0 39.6   1.6 4.1   2.0 SE | 132 5.2   1.5 SE | 125 0.00 19.0   0.1 56.9   0.4 0.00 46.3   2.4 - 20.1   0.5
Lamoille 1/28/26 1720 33.2   0.5 65   17 22.8   6.3 5.8   1.5 SSE | 166 7.7   1.9 SE | 139 0.00 12.2   0.0 33.4   0.1 0.02 23.5   2.0 36.5   5.9 25.6   17.4
Reid Gardner Sub 5/3/26 0030 63.7   3.8 15   2 14.8   5.8 1.6   0.9 WNW | 287 3.0   1.0 WNW | 297 0.00 25.2   2.6 75.3   0.7 0.00 52.7   12.1 88.5   2.3 13.7   6.6
Corn Creek 5/3/26 0030 69.6   0.5 12   2 14.4   3.1 2.6   4.4 SSE | 154 3.8   6.8 SSE | 165 0.00 4.0   0.0 76.8   1.0 0.00 57.0   5.7 81.5   2.0 25.8   1.7
Lucky Strike 5/3/26 0030 63.0   4.3 11   4 8.3   2.9 9.2   4.0 WSW | 243 15.0   6.7 WSW | 247 0.00 4.5   0.0 68.9   1.0 0.00 54.4   0.8 68.7   0.8 25.0   7.2
Lower Angel Peak 5/3/26 0030 51.0   5.7 19   7 10.2   2.5 6.7   0.6 SE | 132 9.4   1.5 SE | 142 0.00 10.5   0.1 56.6   1.5 0.00 42.0   0.1 64.1   2.4 23.2   5.8
Angel Peak 5/3/26 0030 46.9   4.6 18   6 6.1   1.9 11.7   4.9 S | 170 15.0   4.8 S | 169 0.00 3.4   0.1 52.0   1.4 0.00 40.1   0.6 53.6   0.2 25.5   0.6
Upper Kyle Canyon 5/3/26 0030 46.2   4.0 23   8 10.2   3.1 3.1   1.3 N | 353 5.8   0.7 N | 2 0.00 13.9   0.0 55.4   2.9 0.00 37.6   0.5 58.9   3.0 18.6   2.0
Mt Charleston 5/3/26 0030 47.9   5.1 23   9 12.3   2.7 3.8   0.9 W | 264 6.2   0.4 WSW | 240 0.00 18.4   0.1 47.7   0.7 0.00 39.7   0.1 58.9   2.1 16.3   3.0
Mid Kyle Canyon 5/3/26 0030 49.0   3.7 24   7 13.6   2.6 11.3   1.2 WNW | 302 14.2   1.2 WNW | 300 0.00 7.1   0.0 59.8   2.4 0.00 43.0   0.4 64.0   0.2 21.4   0.5
Blue Diamond 5/3/26 0030 51.9   7.3 23   4 15.1   1.2 1.9   3.6 WNW | 299 3.5   6.1 NW | 324 0.00 3.5   0.0 70.3   0.4 0.00 45.4   0.0 79.0   0.4 16.8   2.2
Artesian Sub 5/3/26 0030 71.4   1.8 17   5 24.3   7.6 0.2   1.0 NW | 326 1.4   4.0 NNW | 327 0.00 13.4   0.1 73.3   0.4 0.00 63.0   1.3 88.0   1.0 13.9   1.7
North Henderson 5/3/26 0030 73.8   2.9 12   1 18.5   0.7 3.7   2.7 WSW | 242 5.6   8.2 SW | 219 0.00 8.9   0.1 79.2   0.7 0.00 65.1   4.1 87.8   1.8 16.6   2.1
Sandy Valley 5/3/26 0030 74.5   1.1 12   0 18.8   1.7 7.4   9.9 ESE | 118 12.3   15.8 ESE | 119 0.00 4.7   0.0 83.0   0.7 0.00 65.2   4.5 83.9   0.1 35.0   3.5
Searchlight 5/3/26 0030 63.7   1.9 16   4 16.0   3.2 5.1   2.3 N | 8 6.1   2.4 NNE | 14 0.00 4.8   0.1 78.2   1.7 0.00 59.3   4.2 81.1   2.7 22.7   8.7
Laughlin 5/3/26 0030 82.1   0.4 11   1 23.3   1.8 3.0   2.2 N | 7 6.7   2.1 NNE | 30 0.00 4.2   0.0 85.0   1.9 0.00 72.2   3.6 94.7   1.7 20.9   13.3
Max     82.1 99 45.8 11.7 - 15.8 - 0.01 44.3 85.0 0.12 72.2 94.7 37.1
Avg     53.6 54 33.3 3.6 - 6.9 - 0.00 13.1 58.3 - - - -
Min     41.3 11 6.1 0.0 - 0.0 - 0.00 1.5 32.0 0.00 28.6 53.6 4.6

Latest Observation

65 Stations

Daily Data
as of 5/3/26 12:30 AM PDT
Station Date Daily Max Temp (°F) Daily Min Temp (°F) Daily Max RH (%) Daily Min RH (%) Wind Spd (mph) Wind Dir (°) Daily Max Wind (mph) Max Wind Dir (°) Time of Max Wind Daily Rain (In) Weekly Precip (In) Season Precip (In) Soil Moist (%) Fuel Temp (°F) Fuel Moisture (%) MinBV Day (V)
Hobart Mills 12/23/25 51.8   11.3 33.9   2.1 88   12 42   34 2.1   1.7 SW | 224 18.4   8.6 WSW | 240 2307 0.65 6.21 15.12 - 37.6   2.8 42   19 8.0   0.7
Prosser Dam 5/1/26 67.4   3.2 27.5   3.1 96   2 15   9 2.3   0.2 W | 261 14.5   0.1 E | 93 1526 0.00 0.19 7.64 21.7   0.6 53.7   3.5 8   2 12.5   0.0
West Incline Village 5/1/26 61.2   3.2 41.2   1.8 62   0 14   13 3.0   0.1 NE | 42 14.9   0.8 S | 190 1046 0.00 0.07 6.58 30.9   0.1 54.8   2.6 6   3 12.4   0.0
Incline Village (Fairview Blvd) 5/1/26 64.2   3.2 43.9   3.5 59   3 11   15 1.8   0.1 NNE | 26 12.4   1.2 S | 180 1217 0.00 0.00 6.18 24.3   0.1 57.2   2.2 6   1 12.6   0.0
Incline Village (Diamond Peak) 5/1/26 58.6   2.6 43.8   2.2 57   7 15   14 0.0   3.6 N | 0 9.2   7.2 N | 352 0959 0.00 0.00 0.41 8.6   0.1 -11.4   0.1 - 12.4   0.0
Incline Village (Mill Creek) 5/1/26 64.5   5.1 42.5   2.8 61   11 12   13 1.4   0.3 SSE | 155 16.4   1.4 N | 354 1116 0.00 0.00 5.91 10.0   0.1 - - 12.4   0.0
Incline Village (Lakeshore Blvd) 5/1/26 62.6   2.7 35.9   3.3 78   3 16   9 1.2   0.6 WNW | 298 11.6   3.1 ENE | 63 1103 0.00 0.00 6.05 31.4   0.6 59.1   2.2 11   0 12.3   0.0
Glenbrook 5/1/26 64.4   3.2 37.4   3.1 76   12 20   6 1.9   0.2 SW | 230 18.3   1.2 ESE | 111 1126 0.00 0.18 4.79 44.3   0.0 51.5   2.0 10   1 12.5   0.0
Zephyr Cove 5/1/26 62.1 29.4 94 23 0.0 N | 0 7.3 SW | 221 1655 0.00 0.13 0.66 - 45.5 - 12.4
Kingsbury Grade 5/1/26 61.6   1.1 37.3   3.9 59   8 22   2 2.4   0.1 E | 82 15.2   3.1 E | 86 1118 0.00 0.03 4.87 6.2   0.1 54.5   2.9 5   2 12.5   0.1
South Daggett Pass (Ridge) 5/1/26 58.8   2.6 43.2   2.7 57   1 24   3 3.1   0.2 SE | 135 16.6   1.7 ENE | 73 1342 0.00 0.01 3.32 6.6   0.0 52.2   2.2 6   1 12.5   0.0
Palomino Valley 5/1/26 74.2   3.7 34.0   1.7 56   9 10   7 2.9   0.2 E | 83 25.8   6.1 WNW | 303 1130 0.00 0.00 1.14 6.7   0.0 59.1   4.5 6   1 12.5   0.0
East Cold Springs 5/1/26 69.0   2.7 45.6   5.2 45   27 15   7 4.9   0.4 NE | 40 26.1   6.1 ESE | 115 1325 0.00 0.00 1.41 1.5   0.0 57.3   1.7 7   1 12.6   0.0
Peavine 5/1/26 66.1   3.1 44.2   5.1 42   14 16   7 5.5   0.5 S | 169 17.9   2.8 NE | 55 1405 0.00 0.00 1.47 - - - 12.5   0.0
West Verdi Peak 5/1/26 66.0   2.5 40.3   1.9 54   23 18   4 2.2   0.2 E | 96 17.1   2.1 ESE | 107 1451 0.00 0.02 5.61 17.4   0.7 57.2   2.5 7   2 12.6   0.0
West Verdi 5/1/26 70.3   2.5 39.1   1.4 67   13 15   4 3.1   0.2 NE | 53 17.0   0.1 E | 93 1220 0.00 0.00 5.27 8.0   0.1 60.5   2.2 8   1 12.6   0.0
South Verdi 5/1/26 67.0   1.8 43.0   1.7 51   8 16   5 8.0   1.2 WSW | 248 29.3   4.3 WSW | 248 1159 0.00 0.00 4.24 17.4   0.7 60.4   1.8 7   1 12.6   0.0
Northwest Reno 5/1/26 70.9   3.4 46.4   1.3 42   16 13   6 4.6   0.7 ENE | 71 25.3   2.9 ESE | 111 1604 0.00 0.00 1.00 24.3   0.1 -17.7   0.0 - 12.5   0.0
North Lawton 5/1/26 70.3   2.2 41.4   1.1 57   10 15   4 5.2   0.2 NNW | 336 21.1   2.5 NE | 53 1333 0.00 0.00 1.70 - - - 12.5   0.0
West Reno (Mogul) 5/1/26 69.2   2.5 43.1   2.1 53   16 14   6 5.4   1.1 WNW | 293 23.2   6.2 NE | 55 1250 0.00 0.00 3.90 39.1   0.2 62.4   2.6 1   1 12.5   0.0
Caughlin (Hunter Lake Trail) 9/15/25 78.6   1.3 52.5   3.7 58   7 23   2 4.2   2.5 S | 173 13.0   20.5 NNE | 31 1309 0.00 0.32 8.05 15.7   0.1 67.4   0.5 7   1 12.7   0.0
ArrowCreek 5/1/26 70.4   3.5 44.3   3.0 47   12 14   5 4.0   1.1 SE | 128 16.4   5.3 NE | 49 1233 0.00 0.00 4.56 - - - 12.4   0.0
Tracy 5/1/26 74.4   3.0 43.3   0.9 46   8 11   6 4.4   0.4 E | 84 20.1   2.9 ENE | 71 1441 0.00 0.00 0.86 8.0   0.0 62.9   1.3 5   1 12.6   0.0
Virginia Highlands 5/1/26 65.8   2.0 46.8   2.6 35   8 12   9 4.3   1.3 SE | 130 17.5   1.4 ESE | 104 1136 0.00 0.00 1.71 7.2   0.0 60.2   3.0 6   1 12.6   0.0
Virginia City 5/1/26 65.5   2.7 47.5   2.6 33   8 15   7 3.0   0.2 N | 11 15.8   1.2 SE | 136 1705 0.00 0.00 1.45 8.6   0.0 56.5   1.6 3   1 12.6   0.0
Six Mile Canyon 9/8/25 98.8   16.5 50.2   7.6 44   3 11   1 7.2   0.3 WSW | 252 27.0   4.6 SSE | 159 1325 0.00 0.00 0.89 12.6   0.1 69.7   3.0 4   0 12.4   0.2
Mt Rose Highway 4/29/26 56.6   7.9 35.6   4.1 63   16 31   6 2.2   0.0 NW | 305 10.8   4.2 NE | 35 1152 0.00 0.08 4.93 24.3   0.3 47.6   8.0 3   0 12.4   0.0
Pleasant Valley 5/1/26 71.9   3.1 41.3   1.9 63   2 15   3 3.0   0.1 SW | 234 14.5   1.1 W | 259 1334 0.00 0.00 2.03 2.8   0.0 65.9   3.7 6   0 12.6   0.0
New Washoe City 5/1/26 70.1   1.7 40.8   2.1 47   13 14   5 4.2   0.6 NE | 51 19.0   2.0 ENE | 71 1959 0.00 0.00 1.31 4.6   0.0 62.2   2.6 5   1 12.5   0.0
Franktown Creek 5/1/26 69.9   3.0 38.6   0.7 67   1 13   7 1.4   0.3 NW | 325 10.2   0.1 S | 187 1117 0.00 0.00 5.33 11.2   0.0 56.9   2.0 7   1 12.6   0.0
Musgrove Creek 5/1/26 66.8   2.5 46.8   2.4 56   1 16   6 1.6   0.0 SE | 141 11.0   3.0 NNE | 17 1337 0.00 0.04 7.03 39.2   0.3 59.1   2.3 9   1 12.5   0.0
East Carson 11/22/24 63.8   0.3 41.7   4.6 85   21 21   9 14.9   6.0 SW | 224 46.6   12.7 S | 171 1835 0.05 0.05 4.48 2.5   0.0 53.9   0.3 9   0 12.6   0.0
Kings Canyon 5/1/26 68.9   2.2 40.3   0.6 52   4 15   6 3.7   0.0 SSE | 153 14.9   1.9 NE | 34 1654 0.00 0.00 3.86 15.8   0.5 62.9   2.3 3   1 12.6   0.0
Carson City (Voltaire Canyon) 5/1/26 69.8   2.5 47.3   2.0 48   6 14   5 3.8   1.4 N | 7 15.8   9.8 SSW | 202 1558 0.00 0.00 0.09 2.8   0.0 -10.8   0.0 - 12.6   0.0
Jacks Valley 5/1/26 69.5   3.0 43.5   3.0 48   5 15   4 3.3   0.5 W | 266 19.1   1.1 NW | 316 2054 0.00 0.01 1.98 10.2   0.3 61.2   2.6 6   1 12.6   0.0
Genoa 5/1/26 72.6   2.3 42.6   3.2 56   11 14   4 0.7   0.0 NNE | 26 9.7   0.9 NE | 36 1356 0.00 0.00 4.74 6.0   0.2 61.1   2.0 8   1 12.3   0.0
South Genoa (Walleys Hot Springs) 5/1/26 72.3   2.7 37.0   0.9 88   3 15   3 2.4   0.4 ENE | 65 15.9   3.7 W | 267 1922 0.00 0.00 2.95 13.6   0.0 62.9   2.1 6   0 12.5   0.0
SW Gardnerville (HWY 88) 5/1/26 70.6   1.9 33.9   1.5 84   4 18   1 3.3   0.0 NW | 308 12.9   0.5 NNE | 21 1556 0.00 0.00 0.56 3.4   0.0 58.6   1.8 8   0 12.4   0.0
Sheridan 5/1/26 70.9   1.8 39.6   2.4 66   8 17   1 3.2   0.2 NW | 320 13.9   1.1 NNE | 16 1453 0.00 0.00 3.06 2.6   0.2 62.7   1.7 6   1 12.5   0.0
Ruhenstroth 5/1/26 71.9   2.5 39.5   2.7 54   7 12   5 3.1   0.1 SW | 224 16.8   2.5 NNW | 336 1304 0.00 0.00 1.42 13.3   0.3 59.8   2.5 7   1 12.6   0.0
Double Spring 5/1/26 67.3   1.5 30.6   1.3 65   6 10   10 3.7   0.6 SSW | 203 23.7   14.0 SSE | 154 1109 0.00 0.00 1.54 28.9   0.0 55.2   0.5 6   1 12.6   0.0
North Topaz Lake 5/1/26 68.9   2.5 48.0   3.2 40   2 11   9 3.9   0.4 NNE | 29 17.4   5.8 ESE | 117 1405 0.00 0.00 1.09 9.3   0.1 62.9   2.5 5   1 12.6   0.0
Wild Oat Mountain 5/1/26 68.2   4.6 46.1   1.3 42   1 13   7 3.2   0.4 NE | 51 18.6   0.1 SW | 231 1603 0.00 0.00 1.25 16.8   0.1 60.2   2.3 5   1 12.6   0.0
Smith Valley 5/1/26 72.1   3.0 42.7   5.3 49   7 12   7 3.9   0.2 NW | 320 14.4   1.4 NE | 51 1527 0.00 0.00 0.86 6.1   0.0 63.9   3.5 5   1 12.6   0.0
Pine Grove Mountain 5/1/26 57.1   2.9 41.5   0.4 38   3 18   6 5.8   0.8 ENE | 62 20.1   0.2 N | 354 1449 0.00 0.08 0.34 14.5   0.0 52.8   2.4 4   1 12.6   0.0
Paradise Hill 5/1/26 71.7   4.7 38.6   2.7 49   21 14   7 5.4   1.9 ENE | 57 20.5   0.0 NNE | 19 0158 0.00 0.00 2.33 8.1   0.0 64.7   2.0 6   1 12.6   0.0
Winnemucca 5/1/26 71.5   3.8 38.5   0.4 49   22 12   8 7.1   0.9 NE | 55 21.6   0.1 E | 87 1302 0.00 0.09 2.90 5.9   0.1 62.4   2.3 2   2 12.6   0.0
NE Elko 5/1/26 68.1   4.7 33.9   8.8 43   43 14   7 3.1   0.3 E | 86 16.9   7.4 ENE | 64 1446 0.00 0.01 2.29 12.4   0.0 55.3   3.4 5   2 12.5   0.0
North Elko 5/1/26 65.1   3.8 41.6   6.7 34   42 12   10 6.8   1.1 NNE | 32 18.8   3.1 NE | 53 0755 0.00 0.00 2.04 28.4   0.1 57.9   4.0 4   2 12.6   0.0
South Elko 5/1/26 - 44.0   6.9 80   7 17   7 4.9   0.8 ENE | 64 20.6   0.8 ESE | 104 1124 0.00 0.00 2.67 19.0   0.0 58.6   4.9 4   2 12.6   0.0
Lamoille 1/27/26 42.4   2.7 21.5   6.4 60   0 25   6 2.6   0.5 SE | 125 8.2   4.1 SE | 139 0137 0.00 0.00 0.67 12.3   0.2 26.9   1.3 11   0 8.5   2.8
Reid Gardner Sub 5/1/26 86.2   0.6 62.8   14.5 27   25 9   2 4.7   1.0 NNW | 340 20.2   1.7 NNE | 16 1329 0.00 0.01 0.56 25.4   0.5 80.1   2.9 1   0 12.7   0.0
Corn Creek 5/1/26 79.4   0.4 62.6   8.0 26   3 12   3 8.6   1.6 W | 262 27.6   5.3 NW | 310 1428 0.00 0.00 0.63 4.1   0.0 73.9   1.4 2   0 12.6   0.0
Lucky Strike 5/1/26 67.8   1.0 53.6   1.2 29   3 14   4 9.3   1.8 WNW | 302 32.2   1.6 N | 4 1458 0.00 0.00 1.21 4.4   0.0 63.6   0.9 3   0 12.6   0.0
Lower Angel Peak 5/1/26 61.7   0.9 41.9   1.2 42   5 18   5 6.2   1.2 SW | 236 29.1   8.7 NW | 323 1427 0.00 0.02 1.93 10.6   0.1 55.0   1.1 3   1 12.6   0.0
Angel Peak 5/1/26 53.4   0.8 39.5   1.3 44   4 22   6 3.2   0.6 NNE | 16 24.8   8.4 NW | 308 1702 0.00 0.08 84.70 3.5   0.1 49.8   2.4 6   1 12.5   0.0
Upper Kyle Canyon 5/1/26 55.9   1.4 38.1   1.2 47   4 20   7 3.8   0.1 NNW | 341 16.6   0.0 NW | 310 1701 0.00 0.22 5.08 13.9   0.1 49.0   2.3 8   0 12.7   0.0
Mt Charleston 5/1/26 56.8   2.4 39.6   0.8 50   2 18   7 2.3   0.0 W | 266 13.3   0.2 N | 8 1722 0.00 0.30 5.28 18.5   0.1 50.2   0.2 29   0 12.6   0.0
Mid Kyle Canyon 5/1/26 63.8   2.3 42.6   0.6 43   2 17   5 8.3   0.3 NW | 325 21.9   1.7 NE | 49 1615 0.00 0.06 2.08 7.1   0.0 57.7   0.1 7   0 12.8   0.0
Blue Diamond 5/1/26 78.6   1.4 45.3   0.4 45   0 12   3 4.5   0.1 N | 356 19.0   0.8 SE | 133 1323 0.00 0.00 0.85 3.5   0.0 - 4   0 12.8   0.0
Artesian Sub 5/1/26 87.0   0.3 64.3   1.5 28   1 9   3 2.7   0.4 NNE | 14 15.6   1.7 N | 11 1126 0.00 0.00 0.35 13.5   0.1 - 0   0 12.7   0.0
North Henderson 5/1/26 86.0   0.0 69.2   4.6 23   6 9   3 5.0   0.1 NNE | 27 18.8   3.1 NNE | 19 0920 0.00 0.00 0.52 8.8   0.0 80.3   0.8 5   0 12.7   0.0
Sandy Valley 5/1/26 84.0   1.9 60.7   8.2 26   5 12   3 7.8   2.7 ENE | 70 31.6   6.6 ENE | 73 0001 0.00 0.00 0.62 4.6   0.0 77.8   4.1 3   0 12.7   0.0
Searchlight 5/1/26 78.4   1.6 55.0   4.0 28   3 16   0 11.7   1.8 N | 4 31.4   3.5 NNE | 28 1419 0.00 0.00 0.51 4.7   0.0 72.1   3.0 1   0 12.6   0.0
Laughlin 5/1/26 93.0   0.5 75.8   10.0 22   17 11   0 14.1   4.7 N | 7 34.2   5.3 NNE | 23 1552 0.00 0.00 0.29 4.2   0.0 85.1   3.0 3   0 12.8   0.0
Max   93.0 75.8 96 24 14.1 - 34.2 - - 0.00 - 84.70 44.3 85.1 29 12.8
Avg   - - - - 4.2 - - - - - - - 13.2 56.4 6 -
Min   53.4 27.5 22 9 0.0 - 7.3 - - 0.00 - 0.09 1.5 -17.7 0 12.3

Fosberg 6Hr Max

Map

Hourly Data

Fosberg 6Hr Max

Map

Hourly Data